createdAt,value
2023-03-29T00:03:52.241Z,-3.57
2023-03-29T00:08:55.387Z,-3.60
2023-03-29T00:13:58.387Z,-3.65
2023-03-29T00:19:01.304Z,-3.65
2023-03-29T00:24:04.298Z,-3.64
2023-03-29T00:29:07.202Z,-3.63
2023-03-29T00:34:10.414Z,-3.62
2023-03-29T00:39:13.317Z,-3.59
2023-03-29T00:44:54.810Z,-3.57
2023-03-29T00:50:06.334Z,-3.58
2023-03-29T00:55:14.748Z,-3.61
2023-03-29T01:00:21.186Z,-3.59
2023-03-29T01:05:35.539Z,-3.54
2023-03-29T01:10:57.999Z,-3.49
2023-03-29T01:16:02.980Z,-3.46
2023-03-29T01:21:19.650Z,-3.44
2023-03-29T01:26:43.839Z,-3.49
2023-03-29T01:31:53.246Z,-3.60
2023-03-29T01:37:15.898Z,-3.69
2023-03-29T01:42:34.071Z,-3.77
2023-03-29T01:47:43.143Z,-3.83
2023-03-29T01:53:01.478Z,-3.90
2023-03-29T01:58:08.591Z,-3.91
2023-03-29T02:03:15.139Z,-3.86
2023-03-29T02:08:19.782Z,-3.77
2023-03-29T02:13:22.820Z,-3.73
2023-03-29T02:18:26.481Z,-3.74
2023-03-29T02:23:35.081Z,-3.77
2023-03-29T02:28:38.185Z,-3.83
2023-03-29T02:34:03.631Z,-3.86
2023-03-29T02:39:09.953Z,-3.90
2023-03-29T02:44:17.516Z,-3.93
2023-03-29T02:49:20.521Z,-3.95
2023-03-29T02:54:30.101Z,-3.94
2023-03-29T02:59:33.917Z,-3.88
2023-03-29T03:04:36.837Z,-3.84
2023-03-29T03:09:40.238Z,-3.77
2023-03-29T03:14:43.340Z,-3.74
2023-03-29T03:19:46.350Z,-3.73
2023-03-29T03:24:49.455Z,-3.76
2023-03-29T03:29:52.358Z,-3.79
2023-03-29T03:34:55.259Z,-3.85
2023-03-29T03:39:58.164Z,-3.89
2023-03-29T03:45:01.086Z,-3.87
2023-03-29T03:50:05.625Z,-3.83
2023-03-29T03:55:09.537Z,-3.80
2023-03-29T04:00:19.507Z,-3.78
2023-03-29T04:05:22.514Z,-3.81
2023-03-29T04:10:25.827Z,-3.86
2023-03-29T04:15:29.673Z,-3.92
2023-03-29T04:20:32.660Z,-3.95
2023-03-29T04:25:35.870Z,-3.91
2023-03-29T04:30:39.135Z,-3.83
2023-03-29T04:35:42.654Z,-3.74
2023-03-29T04:40:45.930Z,-3.60
2023-03-29T04:45:48.836Z,-3.25
2023-03-29T04:50:52.555Z,-2.86
2023-03-29T04:55:55.974Z,-2.42
2023-03-29T05:00:59.747Z,-1.90
2023-03-29T05:06:09.195Z,-1.37
2023-03-29T05:11:13.900Z,-0.90
2023-03-29T05:16:16.982Z,-0.46
2023-03-29T05:21:20.734Z,0.08
2023-03-29T05:26:24.218Z,0.76
2023-03-29T05:31:28.921Z,1.37
2023-03-29T05:36:32.410Z,1.91
2023-03-29T05:41:35.415Z,2.42
2023-03-29T05:46:38.414Z,3.03
2023-03-29T05:51:42.231Z,3.55
2023-03-29T05:56:45.278Z,4.03
2023-03-29T06:01:48.678Z,4.60
2023-03-29T06:06:53.224Z,5.35
2023-03-29T06:11:57.655Z,6.06
2023-03-29T06:17:01.957Z,6.67
2023-03-29T06:22:04.896Z,7.35
2023-03-29T06:27:07.898Z,8.18
2023-03-29T06:32:11.313Z,8.95
2023-03-29T06:37:14.525Z,9.49
2023-03-29T06:42:21.641Z,10.29
2023-03-29T06:47:31.167Z,11.18
2023-03-29T06:52:34.166Z,12.01
2023-03-29T06:57:37.718Z,12.57
2023-03-29T07:02:41.825Z,13.29
2023-03-29T07:07:57.253Z,14.10
2023-03-29T07:13:01.054Z,14.73
2023-03-29T07:18:05.160Z,15.61
2023-03-29T07:23:11.851Z,16.57
2023-03-29T07:28:15.336Z,17.51
2023-03-29T07:33:18.431Z,18.39
2023-03-29T07:38:21.423Z,19.43
2023-03-29T07:43:24.450Z,20.16
2023-03-29T07:48:27.746Z,20.57
2023-03-29T07:53:30.775Z,20.91
2023-03-29T07:58:33.631Z,21.08
2023-03-29T08:03:36.689Z,21.57
2023-03-29T08:08:39.866Z,22.21
2023-03-29T08:13:42.704Z,22.91
2023-03-29T08:18:45.585Z,23.64
2023-03-29T08:23:48.795Z,24.43
2023-03-29T08:28:52.209Z,24.95
2023-03-29T08:33:55.113Z,24.55
2023-03-29T08:38:58.332Z,24.04
2023-03-29T08:44:21.813Z,24.07
2023-03-29T08:49:26.323Z,24.50
2023-03-29T08:54:43.505Z,24.63
2023-03-29T08:59:53.058Z,24.24
2023-03-29T09:05:09.374Z,24.02
2023-03-29T09:10:17.711Z,23.45
2023-03-29T09:15:54.638Z,23.57
2023-03-29T09:21:03.903Z,24.31
2023-03-29T09:26:14.983Z,25.09
2023-03-29T09:31:26.761Z,25.97
2023-03-29T09:36:36.532Z,26.53
2023-03-29T09:41:45.032Z,27.02
2023-03-29T09:46:56.161Z,27.34
2023-03-29T09:52:06.039Z,27.11
2023-03-29T09:57:15.962Z,26.91
2023-03-29T10:02:21.438Z,27.26
2023-03-29T10:07:24.475Z,27.90
2023-03-29T10:12:27.993Z,28.39
2023-03-29T10:17:39.751Z,28.55
2023-03-29T10:22:54.999Z,28.47
2023-03-29T10:28:04.943Z,27.88
2023-03-29T10:33:17.917Z,27.69
2023-03-29T10:38:25.363Z,27.84
2023-03-29T10:43:40.027Z,28.25
2023-03-29T10:48:47.255Z,28.32
2023-03-29T10:53:50.963Z,27.84
2023-03-29T10:59:49.741Z,27.51
2023-03-29T11:05:06.160Z,27.38
2023-03-29T11:10:15.835Z,27.49
2023-03-29T11:15:19.153Z,27.46
2023-03-29T11:20:42.073Z,27.36
2023-03-29T11:26:08.672Z,27.20
2023-03-29T11:31:21.556Z,27.91
2023-03-29T11:36:51.058Z,28.68
2023-03-29T11:41:59.535Z,28.90
2023-03-29T11:47:10.175Z,28.38
2023-03-29T11:52:23.611Z,27.54
2023-03-29T11:57:28.898Z,27.56
2023-03-29T12:02:38.021Z,27.61
2023-03-29T12:07:51.161Z,27.38
2023-03-29T12:13:15.373Z,27.43
2023-03-29T12:18:33.528Z,27.73
2023-03-29T12:23:36.636Z,27.99
2023-03-29T12:28:51.930Z,27.84
2023-03-29T12:34:20.233Z,27.76
2023-03-29T12:39:24.799Z,28.04
2023-03-29T12:44:28.089Z,28.23
2023-03-29T12:49:38.161Z,27.82
2023-03-29T12:54:41.355Z,26.74
2023-03-29T12:59:50.132Z,25.76
2023-03-29T13:04:56.858Z,25.36
2023-03-29T13:10:03.590Z,25.23
2023-03-29T13:15:23.174Z,24.87
2023-03-29T13:20:26.326Z,24.78
2023-03-29T13:26:01.946Z,24.82
2023-03-29T13:31:27.251Z,24.48
2023-03-29T13:36:58.171Z,23.97
2023-03-29T13:42:25.868Z,23.80
2023-03-29T13:47:43.217Z,23.77
2023-03-29T13:53:02.383Z,23.78
2023-03-29T13:58:21.162Z,23.39
2023-03-29T14:03:30.050Z,22.30
2023-03-29T14:08:44.475Z,21.39
2023-03-29T14:13:47.587Z,21.05
2023-03-29T14:18:52.769Z,20.16
2023-03-29T14:24:02.519Z,19.07
2023-03-29T14:29:09.916Z,18.72
2023-03-29T14:34:17.260Z,18.27
2023-03-29T14:39:24.009Z,17.99
2023-03-29T14:44:33.247Z,17.75
2023-03-29T14:49:36.524Z,17.76
2023-03-29T14:54:47.770Z,17.74
2023-03-29T15:00:22.356Z,17.39
2023-03-29T15:05:44.251Z,16.66
2023-03-29T15:10:47.298Z,15.52
2023-03-29T15:15:56.993Z,14.35
2023-03-29T15:21:01.399Z,13.24
2023-03-29T15:26:26.515Z,12.21
2023-03-29T15:31:38.578Z,11.34
2023-03-29T15:36:45.244Z,10.63
2023-03-29T15:41:51.403Z,9.98
2023-03-29T15:46:59.964Z,9.50
2023-03-29T15:52:03.282Z,9.13
2023-03-29T15:57:10.407Z,8.89
2023-03-29T16:02:20.465Z,8.63
2023-03-29T16:07:23.447Z,8.34
2023-03-29T16:12:26.404Z,8.11
2023-03-29T16:17:29.384Z,7.89
2023-03-29T16:22:32.462Z,7.72
2023-03-29T16:27:35.889Z,7.58
2023-03-29T16:32:39.254Z,7.48
2023-03-29T16:37:42.298Z,7.38
2023-03-29T16:42:45.512Z,7.29
2023-03-29T16:47:48.561Z,7.21
2023-03-29T16:52:54.290Z,7.10
2023-03-29T16:57:57.601Z,7.00
2023-03-29T17:03:02.034Z,6.88
2023-03-29T17:08:05.102Z,6.79
2023-03-29T17:13:08.834Z,6.68
2023-03-29T17:18:12.440Z,6.56
2023-03-29T17:23:15.499Z,6.48
2023-03-29T17:28:18.509Z,6.40
2023-03-29T17:33:22.806Z,6.33
2023-03-29T17:38:27.285Z,6.26
2023-03-29T17:43:30.977Z,6.18
2023-03-29T17:48:34.024Z,6.13
2023-03-29T17:53:37.857Z,6.06
2023-03-29T17:58:40.748Z,6.00
2023-03-29T18:03:43.771Z,5.94
2023-03-29T18:08:47.518Z,5.90
2023-03-29T18:13:55.435Z,5.86
2023-03-29T18:18:58.319Z,5.81
2023-03-29T18:24:01.205Z,5.75
2023-03-29T18:29:04.102Z,5.68
2023-03-29T18:34:07.047Z,5.62
2023-03-29T18:39:10.042Z,5.57
2023-03-29T18:44:14.268Z,5.52
2023-03-29T18:49:17.090Z,5.46
2023-03-29T18:54:20.171Z,5.41
2023-03-29T18:59:23.079Z,5.38
2023-03-29T19:04:27.985Z,5.33
2023-03-29T19:09:31.963Z,5.30
2023-03-29T19:14:34.864Z,5.27
2023-03-29T19:19:38.078Z,5.27
2023-03-29T19:24:41.195Z,5.27
2023-03-29T19:29:44.194Z,5.27
2023-03-29T19:34:47.719Z,5.28
2023-03-29T19:39:50.897Z,5.28
2023-03-29T19:44:53.715Z,5.26
2023-03-29T19:50:00.702Z,5.23
2023-03-29T19:55:04.331Z,5.18
2023-03-29T20:00:08.416Z,5.12
2023-03-29T20:05:12.824Z,5.05
2023-03-29T20:10:15.811Z,4.96
2023-03-29T20:15:19.320Z,4.85
2023-03-29T20:20:24.794Z,4.73
2023-03-29T20:25:29.023Z,4.61
2023-03-29T20:30:32.360Z,4.48
2023-03-29T20:35:35.345Z,4.41
2023-03-29T20:40:41.021Z,4.40
2023-03-29T20:45:52.640Z,4.46
2023-03-29T20:50:57.930Z,4.57
2023-03-29T20:56:01.083Z,4.75
2023-03-29T21:01:04.552Z,4.96
2023-03-29T21:06:07.931Z,5.16
2023-03-29T21:11:13.207Z,5.31
2023-03-29T21:16:16.182Z,5.44
2023-03-29T21:21:19.210Z,5.56
2023-03-29T21:26:22.933Z,5.65
2023-03-29T21:31:26.330Z,5.73
2023-03-29T21:36:29.757Z,5.78
2023-03-29T21:41:32.762Z,5.83
2023-03-29T21:46:35.627Z,5.87
2023-03-29T21:51:38.880Z,5.90
2023-03-29T21:56:41.818Z,5.94
2023-03-29T22:01:44.809Z,5.99
2023-03-29T22:06:47.596Z,6.04
2023-03-29T22:11:50.400Z,6.08
2023-03-29T22:16:53.926Z,6.10
2023-03-29T22:22:01.715Z,6.13
2023-03-29T22:27:04.639Z,6.14
2023-03-29T22:32:07.616Z,6.17
2023-03-29T22:37:10.557Z,6.19
2023-03-29T22:42:13.454Z,6.21
2023-03-29T22:47:16.770Z,6.20
2023-03-29T22:52:19.773Z,6.19
2023-03-29T22:57:22.729Z,6.16
2023-03-29T23:02:25.633Z,6.13
2023-03-29T23:07:28.996Z,6.10
2023-03-29T23:12:31.896Z,6.07
2023-03-29T23:17:35.201Z,6.03
2023-03-29T23:22:39.864Z,6.00
2023-03-29T23:27:43.480Z,5.96
2023-03-29T23:32:47.639Z,5.90
2023-03-29T23:37:51.440Z,5.85
2023-03-29T23:42:59.767Z,5.81
2023-03-29T23:48:02.812Z,5.77
2023-03-29T23:53:06.701Z,5.74
2023-03-29T23:58:09.608Z,5.72
